createdAt,value
2022-09-13T00:01:34.024Z,821.72
2022-09-13T00:04:01.251Z,863.63
2022-09-13T00:06:28.322Z,841.08
2022-09-13T00:08:55.484Z,822.40
2022-09-13T00:11:25.466Z,840.50
2022-09-13T00:13:53.124Z,867.22
2022-09-13T00:16:22.318Z,870.63
2022-09-13T00:18:49.771Z,831.30
2022-09-13T00:21:18.664Z,861.95
2022-09-13T00:23:47.511Z,625.10
2022-09-13T00:26:16.139Z,482.70
2022-09-13T00:28:45.426Z,458.92
2022-09-13T00:31:13.036Z,472.58
2022-09-13T00:33:40.426Z,488.52
2022-09-13T00:36:08.551Z,579.33
2022-09-13T00:38:36.563Z,823.67
2022-09-13T00:41:07.466Z,832.13
2022-09-13T00:44:01.903Z,837.05
2022-09-13T00:46:41.453Z,812.50
2022-09-13T00:49:11.345Z,838.03
2022-09-13T00:51:39.057Z,834.05
2022-09-13T00:54:06.179Z,866.03
2022-09-13T00:56:44.324Z,816.03
2022-09-13T00:59:15.012Z,853.33
2022-09-13T01:01:53.430Z,806.20
2022-09-13T01:04:22.329Z,847.42
2022-09-13T01:06:51.955Z,849.58
2022-09-13T01:09:19.102Z,841.83
2022-09-13T01:11:55.538Z,844.63
2022-09-13T01:14:24.673Z,836.03
2022-09-13T01:16:54.298Z,876.92
2022-09-13T01:19:21.644Z,802.88
2022-09-13T01:21:48.793Z,833.33
2022-09-13T01:24:31.399Z,818.15
2022-09-13T01:27:13.882Z,804.45
2022-09-13T01:29:59.291Z,832.63
2022-09-13T01:32:36.041Z,838.08
2022-09-13T01:35:11.042Z,821.80
2022-09-13T01:37:56.189Z,828.00
2022-09-13T01:40:38.679Z,806.55
2022-09-13T01:43:43.533Z,805.03
2022-09-13T01:46:15.742Z,813.63
2022-09-13T01:49:14.927Z,783.30
2022-09-13T01:51:49.351Z,778.45
2022-09-13T01:55:00.466Z,761.22
2022-09-13T01:57:44.062Z,780.25
2022-09-13T02:00:16.666Z,794.65
2022-09-13T02:02:47.002Z,820.22
2022-09-13T02:05:17.238Z,800.67
2022-09-13T02:07:47.267Z,820.72
2022-09-13T02:10:21.562Z,811.25
2022-09-13T02:12:50.951Z,815.33
2022-09-13T02:15:22.835Z,802.72
2022-09-13T02:17:56.453Z,783.17
2022-09-13T02:20:33.234Z,753.80
2022-09-13T02:23:04.967Z,822.80
2022-09-13T02:25:34.645Z,742.45
2022-09-13T02:28:07.292Z,761.17
2022-09-13T02:30:36.578Z,740.95
2022-09-13T02:33:29.034Z,779.70
2022-09-13T02:36:02.415Z,755.00
2022-09-13T02:38:38.045Z,771.17
2022-09-13T02:41:16.581Z,783.80
2022-09-13T02:43:46.682Z,773.72
2022-09-13T02:46:38.351Z,799.97
2022-09-13T02:49:25.191Z,797.13
2022-09-13T02:52:18.447Z,821.30
2022-09-13T02:55:09.075Z,835.70
2022-09-13T02:57:48.875Z,812.10
2022-09-13T03:00:16.106Z,819.83
2022-09-13T03:02:44.383Z,929.42
2022-09-13T03:05:11.569Z,907.15
2022-09-13T03:07:38.734Z,902.17
2022-09-13T03:10:11.397Z,936.20
2022-09-13T03:12:54.119Z,1024.70
2022-09-13T03:15:45.529Z,951.45
2022-09-13T03:18:32.606Z,1104.85
2022-09-13T03:21:19.454Z,993.07
2022-09-13T03:23:46.711Z,1029.38
2022-09-13T03:26:37.673Z,1082.30
2022-09-13T03:29:04.440Z,826.22
2022-09-13T03:31:31.620Z,833.10
2022-09-13T03:34:10.740Z,895.07
2022-09-13T03:36:55.644Z,910.80
2022-09-13T03:39:44.045Z,911.30
2022-09-13T03:42:31.557Z,906.75
2022-09-13T03:44:59.018Z,899.83
2022-09-13T03:47:28.370Z,815.00
2022-09-13T03:49:56.618Z,853.20
2022-09-13T03:52:24.382Z,844.67
2022-09-13T03:54:52.982Z,813.00
2022-09-13T03:57:22.166Z,963.67
2022-09-13T03:59:54.323Z,856.05
2022-09-13T04:02:23.174Z,799.43
2022-09-13T04:04:50.350Z,742.90
2022-09-13T04:07:21.679Z,736.67
2022-09-13T04:09:48.891Z,696.50
2022-09-13T04:12:17.234Z,722.47
2022-09-13T04:14:44.473Z,732.63
2022-09-13T04:17:12.113Z,538.95
2022-09-13T04:19:39.397Z,528.75
2022-09-13T04:22:07.033Z,529.85
2022-09-13T04:24:34.251Z,514.95
2022-09-13T04:27:01.916Z,505.80
2022-09-13T04:29:29.420Z,519.20
2022-09-13T04:31:56.778Z,516.40
2022-09-13T04:34:23.886Z,496.60
2022-09-13T04:36:52.459Z,531.72
2022-09-13T04:39:20.467Z,518.00
2022-09-13T04:41:49.629Z,512.92
2022-09-13T04:44:17.717Z,497.80
2022-09-13T04:46:50.851Z,525.65
2022-09-13T04:49:20.038Z,529.28
2022-09-13T04:51:47.426Z,505.02
2022-09-13T04:54:16.239Z,509.80
2022-09-13T04:56:44.339Z,518.93
2022-09-13T04:59:12.652Z,523.83
2022-09-13T05:01:39.854Z,528.80
2022-09-13T05:04:08.018Z,663.88
2022-09-13T05:06:35.356Z,708.28
2022-09-13T05:09:04.251Z,681.90
2022-09-13T05:11:31.540Z,698.25
2022-09-13T05:13:59.852Z,695.93
2022-09-13T05:16:27.982Z,529.35
2022-09-13T05:18:55.769Z,673.45
2022-09-13T05:21:23.957Z,656.25
2022-09-13T05:23:54.871Z,723.27
2022-09-13T05:26:23.074Z,727.35
2022-09-13T05:28:50.657Z,739.83
2022-09-13T05:31:20.517Z,745.53
2022-09-13T05:33:52.690Z,774.63
2022-09-13T05:36:20.370Z,810.50
2022-09-13T05:38:47.699Z,790.40
2022-09-13T05:41:14.872Z,820.85
2022-09-13T05:43:42.100Z,838.70
2022-09-13T05:46:12.796Z,845.97
2022-09-13T05:48:40.199Z,869.13
2022-09-13T05:51:12.759Z,839.22
2022-09-13T05:53:40.926Z,863.60
2022-09-13T05:56:11.347Z,841.47
2022-09-13T05:58:42.795Z,857.80
2022-09-13T06:01:11.095Z,831.33
2022-09-13T06:03:38.507Z,877.30
2022-09-13T06:06:06.178Z,896.75
2022-09-13T06:08:33.757Z,975.13
2022-09-13T06:11:07.738Z,960.58
2022-09-13T06:13:35.442Z,982.90
2022-09-13T06:16:04.711Z,963.50
2022-09-13T06:18:32.296Z,1011.80
2022-09-13T06:21:04.739Z,1068.57
2022-09-13T06:23:32.437Z,1098.75
2022-09-13T06:26:03.579Z,1108.67
2022-09-13T06:28:34.309Z,1063.85
2022-09-13T06:31:08.608Z,1069.40
2022-09-13T06:33:36.543Z,1093.20
2022-09-13T06:36:05.328Z,937.13
2022-09-13T06:38:32.615Z,997.50
2022-09-13T06:41:04.523Z,1013.03
2022-09-13T06:43:32.242Z,1054.53
2022-09-13T06:46:02.580Z,956.47
2022-09-13T06:48:33.322Z,915.07
2022-09-13T06:51:02.018Z,877.17
2022-09-13T06:53:29.403Z,917.72
2022-09-13T06:56:08.662Z,981.97
2022-09-13T06:58:37.786Z,929.40
2022-09-13T07:01:10.502Z,1034.20
2022-09-13T07:03:39.128Z,1022.80
2022-09-13T07:06:21.994Z,1045.32
2022-09-13T07:08:50.960Z,924.37
2022-09-13T07:11:19.087Z,911.08
2022-09-13T07:13:53.299Z,788.55
2022-09-13T07:16:21.509Z,780.97
2022-09-13T07:18:53.255Z,768.07
2022-09-13T07:21:20.580Z,829.90
2022-09-13T07:23:47.711Z,774.08
2022-09-13T07:26:14.853Z,682.72
2022-09-13T07:28:44.390Z,671.03
2022-09-13T07:31:14.949Z,782.92
2022-09-13T07:33:43.241Z,760.20
2022-09-13T07:36:11.704Z,792.45
2022-09-13T07:38:41.129Z,774.30
2022-09-13T07:41:16.599Z,783.95
2022-09-13T07:43:43.988Z,804.47
2022-09-13T07:46:13.407Z,800.07
2022-09-13T07:48:43.237Z,823.58
2022-09-13T07:51:15.636Z,795.97
2022-09-13T07:53:44.348Z,807.38
2022-09-13T07:56:15.992Z,816.97
2022-09-13T07:58:44.267Z,792.03
2022-09-13T08:01:20.684Z,805.80
2022-09-13T08:03:53.095Z,800.28
2022-09-13T08:06:20.488Z,833.88
2022-09-13T08:08:47.571Z,857.92
2022-09-13T08:11:18.342Z,710.05
2022-09-13T08:13:49.033Z,766.90
2022-09-13T08:16:19.189Z,767.67
2022-09-13T08:18:50.154Z,733.25
2022-09-13T08:21:17.346Z,741.13
2022-09-13T08:23:45.131Z,700.40
2022-09-13T08:26:12.074Z,654.10
2022-09-13T08:28:40.491Z,680.42
2022-09-13T08:31:10.446Z,676.23
2022-09-13T08:33:37.757Z,683.22
2022-09-13T08:36:05.502Z,659.72
2022-09-13T08:38:32.436Z,662.92
2022-09-13T08:41:24.981Z,526.13
2022-09-13T08:44:04.572Z,531.58
2022-09-13T08:46:31.663Z,572.72
2022-09-13T08:49:01.771Z,571.28
2022-09-13T08:51:33.218Z,543.25
2022-09-13T08:54:03.168Z,559.00
2022-09-13T08:56:36.686Z,578.83
2022-09-13T08:59:04.035Z,590.28
2022-09-13T09:02:05.979Z,600.60
2022-09-13T09:04:46.316Z,607.15
2022-09-13T09:07:59.906Z,568.13
2022-09-13T09:10:37.822Z,591.45
2022-09-13T09:13:16.921Z,588.40
2022-09-13T09:15:47.921Z,585.70
2022-09-13T09:18:35.677Z,563.30
2022-09-13T09:21:06.858Z,565.67
2022-09-13T09:23:42.372Z,528.33
2022-09-13T09:26:30.656Z,521.03
2022-09-13T09:29:25.546Z,511.80
2022-09-13T09:32:16.955Z,520.58
2022-09-13T09:35:10.860Z,474.35
2022-09-13T09:37:38.743Z,356.70
2022-09-13T09:40:10.215Z,383.92
2022-09-13T09:42:44.749Z,412.25
2022-09-13T09:45:33.762Z,464.77
2022-09-13T09:48:16.790Z,500.30
2022-09-13T09:50:54.894Z,470.40
2022-09-13T09:53:36.672Z,481.40
2022-09-13T09:56:15.804Z,458.10
2022-09-13T09:58:46.090Z,467.45
2022-09-13T10:01:16.495Z,466.95
2022-09-13T10:03:50.390Z,511.85
2022-09-13T10:06:22.355Z,602.10
2022-09-13T10:09:05.653Z,602.55
2022-09-13T10:11:55.507Z,609.55
2022-09-13T10:14:30.102Z,614.87
2022-09-13T10:17:06.523Z,625.63
2022-09-13T10:19:33.817Z,612.03
2022-09-13T10:22:11.537Z,699.45
2022-09-13T10:24:39.226Z,717.30
2022-09-13T10:27:22.548Z,683.08
2022-09-13T10:29:55.318Z,702.90
2022-09-13T10:32:22.888Z,710.42
2022-09-13T10:34:50.433Z,704.78
2022-09-13T10:37:33.725Z,724.35
2022-09-13T10:40:03.912Z,720.50
2022-09-13T10:42:31.387Z,724.60
2022-09-13T10:44:58.522Z,727.25
2022-09-13T10:47:27.671Z,729.60
2022-09-13T10:49:56.882Z,717.03
2022-09-13T10:52:36.305Z,719.80
2022-09-13T10:55:18.897Z,683.78
2022-09-13T10:57:55.337Z,726.53
2022-09-13T11:00:31.003Z,570.30
2022-09-13T11:03:01.278Z,670.93
2022-09-13T11:05:43.179Z,677.58
2022-09-13T11:08:37.875Z,683.57
2022-09-13T11:11:35.742Z,690.50
2022-09-13T11:14:05.897Z,740.03
2022-09-13T11:16:33.096Z,758.25
2022-09-13T11:19:15.645Z,785.42
2022-09-13T11:21:43.141Z,754.78
2022-09-13T11:24:19.739Z,743.38
2022-09-13T11:26:46.797Z,760.42
2022-09-13T11:29:13.980Z,753.00
2022-09-13T11:32:03.980Z,800.55
2022-09-13T11:34:51.328Z,791.83
2022-09-13T11:37:44.305Z,817.17
2022-09-13T11:40:41.547Z,775.15
2022-09-13T11:43:26.963Z,755.22
2022-09-13T11:46:25.517Z,782.63
2022-09-13T11:49:28.448Z,981.08
2022-09-13T11:52:01.722Z,937.25
2022-09-13T11:54:53.806Z,980.70
2022-09-13T11:57:49.635Z,873.05
2022-09-13T12:00:41.962Z,897.05
2022-09-13T12:03:12.980Z,928.83
2022-09-13T12:05:55.547Z,886.10
2022-09-13T12:08:24.586Z,909.90
2022-09-13T12:10:51.733Z,1016.33
2022-09-13T12:13:29.047Z,1038.75
2022-09-13T12:16:07.036Z,934.53
2022-09-13T12:18:37.423Z,958.92
2022-09-13T12:21:09.279Z,810.13
2022-09-13T12:24:22.006Z,801.95
2022-09-13T12:26:55.328Z,861.60
2022-09-13T12:29:32.807Z,817.27
2022-09-13T12:32:02.810Z,841.67
2022-09-13T12:34:42.162Z,820.08
2022-09-13T12:37:10.034Z,831.87
2022-09-13T12:40:14.564Z,819.60
2022-09-13T12:42:52.636Z,830.40
2022-09-13T12:45:41.830Z,827.03
2022-09-13T12:48:25.769Z,849.97
2022-09-13T12:51:05.209Z,839.60
2022-09-13T12:53:57.943Z,648.10
2022-09-13T12:56:31.320Z,659.83
2022-09-13T12:59:29.191Z,713.65
2022-09-13T13:01:58.228Z,812.73
2022-09-13T13:04:34.027Z,815.22
2022-09-13T13:07:03.012Z,684.47
2022-09-13T13:09:36.300Z,689.10
2022-09-13T13:12:04.211Z,748.42
2022-09-13T13:14:31.323Z,797.93
2022-09-13T13:17:36.611Z,810.63
2022-09-13T13:20:41.750Z,837.30
2022-09-13T13:23:25.238Z,809.97
2022-09-13T13:26:33.638Z,690.05
2022-09-13T13:29:03.564Z,777.77
2022-09-13T13:31:30.678Z,812.15
2022-09-13T13:34:14.754Z,800.65
2022-09-13T13:36:41.365Z,761.85
2022-09-13T13:39:11.442Z,769.17
2022-09-13T13:41:40.485Z,843.33
2022-09-13T13:44:20.227Z,827.95
2022-09-13T13:46:49.671Z,853.72
2022-09-13T13:49:44.125Z,850.10
2022-09-13T13:52:11.731Z,814.53
2022-09-13T13:54:59.222Z,801.53
2022-09-13T13:57:29.371Z,826.25
2022-09-13T14:00:06.799Z,778.83
2022-09-13T14:03:02.028Z,821.95
2022-09-13T14:05:32.378Z,774.83
2022-09-13T14:11:07.274Z,702.60
2022-09-13T14:13:47.764Z,759.47
2022-09-13T14:16:33.092Z,712.53
2022-09-13T14:19:31.198Z,716.80
2022-09-13T14:22:16.579Z,812.72
2022-09-13T14:24:48.769Z,898.50
2022-09-13T14:27:19.839Z,993.47
2022-09-13T14:29:49.756Z,956.65
2022-09-13T14:32:19.002Z,949.90
2022-09-13T14:35:01.171Z,1001.28
2022-09-13T14:37:32.701Z,956.13
2022-09-13T14:40:07.907Z,917.10
2022-09-13T14:42:55.816Z,671.33
2022-09-13T14:45:29.257Z,730.13
2022-09-13T14:47:56.443Z,863.03
2022-09-13T14:50:28.514Z,842.33
2022-09-13T14:52:59.877Z,797.70
2022-09-13T14:55:35.692Z,844.45
2022-09-13T14:58:08.267Z,891.67
2022-09-13T15:00:44.893Z,960.88
2022-09-13T15:03:15.888Z,867.72
2022-09-13T15:05:43.266Z,952.35
2022-09-13T15:08:34.861Z,994.70
2022-09-13T15:11:06.355Z,920.42
2022-09-13T15:13:34.885Z,1034.97
2022-09-13T15:16:02.729Z,995.50
2022-09-13T15:18:36.766Z,926.07
2022-09-13T15:21:06.318Z,1002.40
2022-09-13T15:23:43.038Z,1018.00
2022-09-13T15:26:12.056Z,973.90
2022-09-13T15:28:42.222Z,979.70
2022-09-13T15:31:09.924Z,970.88
2022-09-13T15:33:37.315Z,839.20
2022-09-13T15:36:19.686Z,863.35
2022-09-13T15:38:58.792Z,803.87
2022-09-13T15:41:29.368Z,791.75
2022-09-13T15:43:56.913Z,826.72
2022-09-13T15:46:24.157Z,793.75
2022-09-13T15:48:54.124Z,775.40
2022-09-13T15:51:22.994Z,759.53
2022-09-13T15:53:50.261Z,747.00
2022-09-13T15:56:32.762Z,560.03
2022-09-13T15:59:00.026Z,562.63
2022-09-13T16:01:27.615Z,567.30
2022-09-13T16:03:54.831Z,544.88
2022-09-13T16:06:24.696Z,574.53
2022-09-13T16:08:52.103Z,572.03
2022-09-13T16:11:19.267Z,560.42
2022-09-13T16:13:46.403Z,558.03
2022-09-13T16:16:16.783Z,520.47
2022-09-13T16:18:44.069Z,583.17
2022-09-13T16:21:11.306Z,597.63
2022-09-13T16:23:38.522Z,600.10
2022-09-13T16:26:06.202Z,627.40
2022-09-13T16:28:33.444Z,604.42
2022-09-13T16:31:00.604Z,589.57
2022-09-13T16:33:27.911Z,620.95
2022-09-13T16:35:58.027Z,617.17
2022-09-13T16:38:28.771Z,639.38
2022-09-13T16:40:55.905Z,626.55
2022-09-13T16:43:23.273Z,521.25
2022-09-13T16:45:51.393Z,555.92
2022-09-13T16:48:18.515Z,559.88
2022-09-13T16:50:45.670Z,580.00
2022-09-13T16:53:12.847Z,586.85
2022-09-13T16:55:39.651Z,627.55
2022-09-13T16:58:06.850Z,584.13
2022-09-13T17:00:33.991Z,555.63
2022-09-13T17:03:01.390Z,583.13
2022-09-13T17:05:28.681Z,586.65
2022-09-13T17:07:55.737Z,606.78
2022-09-13T17:10:22.886Z,616.13
2022-09-13T17:12:50.252Z,648.42
2022-09-13T17:15:18.065Z,626.22
2022-09-13T17:17:45.247Z,679.65
2022-09-13T17:20:13.282Z,651.75
2022-09-13T17:22:41.639Z,655.25
2022-09-13T17:25:09.310Z,651.50
2022-09-13T17:27:36.606Z,703.03
2022-09-13T17:30:05.115Z,665.47
2022-09-13T17:32:32.307Z,686.95
2022-09-13T17:34:59.492Z,671.28
2022-09-13T17:37:26.837Z,669.90
2022-09-13T17:39:54.129Z,732.17
2022-09-13T17:42:23.366Z,714.92
2022-09-13T17:44:50.971Z,719.95
2022-09-13T17:47:18.244Z,706.20
2022-09-13T17:49:46.561Z,689.60
2022-09-13T17:52:14.054Z,687.20
2022-09-13T17:54:43.227Z,721.53
2022-09-13T17:57:11.814Z,736.38
2022-09-13T17:59:39.015Z,722.15
2022-09-13T18:02:06.312Z,710.00
2022-09-13T18:04:33.595Z,709.40
2022-09-13T18:07:00.729Z,692.97
2022-09-13T18:09:28.004Z,722.00
2022-09-13T18:11:55.192Z,690.05
2022-09-13T18:14:23.651Z,694.33
2022-09-13T18:16:55.613Z,702.42
2022-09-13T18:19:44.435Z,682.53
2022-09-13T18:22:10.855Z,695.15
2022-09-13T18:24:37.996Z,676.67
2022-09-13T18:27:05.467Z,710.72
2022-09-13T18:29:32.968Z,713.05
2022-09-13T18:32:00.251Z,705.90
2022-09-13T18:34:27.935Z,697.47
2022-09-13T18:36:55.343Z,716.67
2022-09-13T18:39:23.071Z,713.85
2022-09-13T18:41:50.239Z,740.85
2022-09-13T18:44:19.649Z,740.47
2022-09-13T18:46:47.305Z,709.25
2022-09-13T18:49:15.049Z,735.40
2022-09-13T18:51:43.831Z,687.28
2022-09-13T18:54:15.979Z,691.43
2022-09-13T18:56:43.326Z,687.45
2022-09-13T18:59:10.993Z,646.90
2022-09-13T19:01:39.598Z,629.75
2022-09-13T19:04:08.442Z,633.00
2022-09-13T19:06:37.210Z,664.53
2022-09-13T19:09:05.088Z,656.80
2022-09-13T19:11:46.859Z,681.70
2022-09-13T19:14:16.317Z,673.15
2022-09-13T19:16:43.538Z,667.92
2022-09-13T19:19:10.719Z,662.50
2022-09-13T19:21:37.869Z,677.28
2022-09-13T19:24:10.078Z,687.23
2022-09-13T19:26:39.067Z,783.50
2022-09-13T19:29:08.698Z,843.40
2022-09-13T19:31:41.427Z,733.10
2022-09-13T19:34:08.711Z,705.80
2022-09-13T19:36:36.761Z,730.10
2022-09-13T19:39:05.035Z,748.00
2022-09-13T19:41:32.759Z,748.03
2022-09-13T19:44:01.457Z,738.30
2022-09-13T19:46:31.503Z,721.63
2022-09-13T19:49:00.944Z,723.47
2022-09-13T19:51:28.186Z,716.47
2022-09-13T19:53:57.744Z,719.65
2022-09-13T19:56:30.675Z,617.42
2022-09-13T19:58:58.498Z,589.72
2022-09-13T20:01:27.982Z,580.20
2022-09-13T20:03:56.845Z,609.58
2022-09-13T20:06:24.982Z,634.63
2022-09-13T20:08:52.994Z,587.83
2022-09-13T20:11:21.019Z,600.30
2022-09-13T20:13:48.927Z,591.53
2022-09-13T20:16:18.993Z,576.53
2022-09-13T20:18:46.547Z,585.85
2022-09-13T20:21:15.316Z,538.70
2022-09-13T20:23:44.258Z,473.17
2022-09-13T20:26:18.702Z,507.25
2022-09-13T20:28:47.189Z,504.30
2022-09-13T20:31:15.260Z,471.30
2022-09-13T20:33:42.760Z,483.27
2022-09-13T20:36:13.362Z,451.02
2022-09-13T20:38:41.496Z,480.20
2022-09-13T20:41:11.444Z,565.83
2022-09-13T20:43:38.618Z,578.83
2022-09-13T20:46:05.764Z,566.67
2022-09-13T20:48:34.403Z,550.17
2022-09-13T20:51:03.575Z,517.20
2022-09-13T20:53:30.978Z,538.87
2022-09-13T20:56:06.864Z,514.45
2022-09-13T20:58:33.744Z,511.13
2022-09-13T21:01:06.686Z,516.35
2022-09-13T21:03:37.761Z,539.88
2022-09-13T21:06:05.646Z,528.63
2022-09-13T21:08:41.648Z,525.25
2022-09-13T21:11:09.683Z,447.70
2022-09-13T21:13:38.414Z,417.88
2022-09-13T21:16:15.124Z,429.92
2022-09-13T21:18:42.966Z,433.77
2022-09-13T21:21:14.969Z,426.00
2022-09-13T21:23:42.503Z,438.20
2022-09-13T21:26:11.002Z,440.52
2022-09-13T21:28:39.575Z,436.27
2022-09-13T21:31:20.747Z,431.15
2022-09-13T21:33:48.770Z,436.05
2022-09-13T21:36:16.121Z,433.27
2022-09-13T21:38:43.459Z,447.63
2022-09-13T21:41:12.924Z,446.73
2022-09-13T21:43:40.480Z,445.08
2022-09-13T21:46:16.880Z,452.38
2022-09-13T21:48:46.328Z,465.15
2022-09-13T21:51:22.389Z,417.80
2022-09-13T21:53:58.195Z,462.70
2022-09-13T21:56:26.907Z,439.48
2022-09-13T21:59:00.193Z,425.00
2022-09-13T22:01:29.439Z,412.42
2022-09-13T22:03:56.778Z,429.27
2022-09-13T22:06:24.387Z,427.77
2022-09-13T22:08:53.792Z,442.27
2022-09-13T22:11:25.834Z,445.63
2022-09-13T22:13:53.664Z,441.02
2022-09-13T22:16:21.915Z,441.50
2022-09-13T22:18:57.501Z,418.70
2022-09-13T22:21:27.204Z,410.43
2022-09-13T22:23:54.344Z,372.20
2022-09-13T22:26:23.392Z,442.98
2022-09-13T22:28:50.975Z,433.95
2022-09-13T22:31:19.973Z,421.52
2022-09-13T22:33:47.668Z,424.05
2022-09-13T22:36:16.526Z,429.15
2022-09-13T22:38:45.999Z,423.80
2022-09-13T22:41:21.304Z,420.88
2022-09-13T22:43:48.893Z,373.63
2022-09-13T22:46:22.230Z,327.42
2022-09-13T22:48:49.779Z,404.33
2022-09-13T22:51:17.939Z,418.73
2022-09-13T22:53:46.355Z,400.15
2022-09-13T22:56:19.679Z,415.88
2022-09-13T22:58:47.483Z,418.35
2022-09-13T23:01:17.288Z,426.98
2022-09-13T23:03:45.808Z,401.75
2022-09-13T23:06:14.052Z,417.67
2022-09-13T23:08:41.560Z,396.65
2022-09-13T23:11:18.138Z,413.05
2022-09-13T23:13:46.898Z,418.40
2022-09-13T23:16:20.013Z,419.17
2022-09-13T23:18:48.071Z,428.57
2022-09-13T23:21:18.420Z,419.23
2022-09-13T23:23:45.333Z,436.50
2022-09-13T23:26:17.678Z,423.42
2022-09-13T23:28:47.723Z,417.83
2022-09-13T23:31:15.456Z,398.70
2022-09-13T23:33:44.918Z,412.13
2022-09-13T23:36:13.075Z,396.95
2022-09-13T23:38:40.924Z,409.10
2022-09-13T23:41:10.603Z,435.73
2022-09-13T23:43:37.967Z,429.30
2022-09-13T23:46:06.255Z,461.35
2022-09-13T23:48:34.672Z,415.13
2022-09-13T23:51:03.467Z,428.23
2022-09-13T23:53:31.027Z,406.33
2022-09-13T23:55:58.143Z,420.10
2022-09-13T23:58:25.773Z,429.05
